Terminal Aerodrome Forecast
Issued by NWS

Home | Current Version | Previous Version | Text Only | Print | Product List | Glossary On
Versions: 1 2 3 4 5 6 7 8 9 10 11 12
000
FTUS45 KVEF 041120
TAFDAG
TAF
KDAG 041120Z 0412/0512 27008KT P6SM FEW250
     FM041400 VRB06KT P6SM FEW250
     FM041600 10008KT P6SM SCT250
     FM041800 14012G20KT P6SM SCT250
     FM042200 20015G25KT P6SM SCT250
     FM050400 26015G25KT P6SM SCT250=

USA.gov is the U.S. government's official web portal to all federal, state and local government web resources and services.